createdAt,value
2022-08-10T00:01:34.730Z,15.10
2022-08-10T00:04:02.347Z,15.00
2022-08-10T00:06:29.658Z,15.00
2022-08-10T00:08:56.922Z,15.00
2022-08-10T00:11:24.735Z,14.90
2022-08-10T00:13:52.477Z,14.90
2022-08-10T00:16:20.011Z,14.90
2022-08-10T00:18:47.233Z,14.90
2022-08-10T00:21:14.933Z,14.80
2022-08-10T00:23:42.082Z,14.80
2022-08-10T00:26:09.244Z,14.80
2022-08-10T00:28:36.661Z,14.80
2022-08-10T00:31:04.189Z,14.80
2022-08-10T00:33:31.281Z,14.80
2022-08-10T00:35:58.862Z,14.70
2022-08-10T00:38:25.970Z,14.70
2022-08-10T00:40:53.035Z,14.70
2022-08-10T00:43:23.322Z,14.70
2022-08-10T00:45:59.480Z,14.60
2022-08-10T00:48:29.242Z,14.60
2022-08-10T00:50:58.370Z,14.60
2022-08-10T00:53:27.160Z,14.50
2022-08-10T00:57:07.914Z,14.50
2022-08-10T00:58:43.030Z,14.50
2022-08-10T01:01:11.077Z,14.50
2022-08-10T01:04:57.745Z,14.50
2022-08-10T01:06:47.550Z,14.50
2022-08-10T01:09:59.730Z,14.40
2022-08-10T01:12:53.409Z,14.40
2022-08-10T01:15:38.922Z,14.40
2022-08-10T01:18:15.087Z,14.30
2022-08-10T01:21:19.905Z,14.30
2022-08-10T01:24:23.186Z,14.30
2022-08-10T01:27:17.853Z,14.30
2022-08-10T01:30:14.943Z,14.20
2022-08-10T01:33:03.044Z,14.20
2022-08-10T01:35:59.526Z,14.10
2022-08-10T01:38:32.369Z,14.10
2022-08-10T01:41:07.283Z,14.00
2022-08-10T01:43:39.323Z,14.00
2022-08-10T01:46:08.502Z,14.00
2022-08-10T01:48:51.090Z,13.90
2022-08-10T01:51:37.263Z,13.90
2022-08-10T01:54:28.584Z,13.90
2022-08-10T01:56:58.103Z,13.80
2022-08-10T01:59:32.742Z,13.80
2022-08-10T02:02:06.409Z,13.80
2022-08-10T02:04:37.984Z,13.70
2022-08-10T02:07:08.557Z,13.70
2022-08-10T02:09:40.643Z,13.60
2022-08-10T02:12:10.828Z,13.60
2022-08-10T02:14:44.579Z,13.50
2022-08-10T02:18:00.049Z,13.50
2022-08-10T02:20:10.170Z,13.50
2022-08-10T02:22:39.745Z,13.40
2022-08-10T02:25:39.724Z,13.40
2022-08-10T02:28:00.226Z,13.40
2022-08-10T02:30:29.248Z,13.40
2022-08-10T02:32:58.903Z,13.40
2022-08-10T02:35:29.173Z,13.30
2022-08-10T02:38:09.875Z,13.30
2022-08-10T02:42:18.646Z,13.30
2022-08-10T02:45:20.126Z,13.30
2022-08-10T02:46:33.377Z,13.30
2022-08-10T02:49:06.988Z,13.20
2022-08-10T02:52:07.291Z,13.20
2022-08-10T02:54:39.254Z,13.20
2022-08-10T02:57:13.731Z,13.20
2022-08-10T02:59:45.682Z,13.10
2022-08-10T03:02:21.199Z,13.10
2022-08-10T03:04:55.214Z,13.10
2022-08-10T03:07:44.662Z,13.10
2022-08-10T03:10:33.739Z,13.10
2022-08-10T03:13:04.259Z,13.10
2022-08-10T03:15:34.589Z,13.00
2022-08-10T03:18:03.131Z,13.10
2022-08-10T03:20:39.524Z,13.00
2022-08-10T03:23:17.506Z,13.10
2022-08-10T03:25:53.496Z,13.10
2022-08-10T03:28:29.574Z,13.10
2022-08-10T03:30:59.021Z,13.10
2022-08-10T03:33:29.824Z,13.10
2022-08-10T03:36:42.185Z,13.20
2022-08-10T03:38:48.642Z,13.10
2022-08-10T03:41:18.449Z,13.10
2022-08-10T03:43:48.946Z,13.10
2022-08-10T03:46:20.931Z,13.10
2022-08-10T03:48:51.969Z,13.10
2022-08-10T03:51:25.372Z,13.10
2022-08-10T03:54:02.740Z,13.10
2022-08-10T03:56:32.977Z,13.10
2022-08-10T03:59:01.419Z,13.20
2022-08-10T04:02:45.761Z,13.20
2022-08-10T04:04:23.751Z,13.20
2022-08-10T04:06:54.908Z,13.20
2022-08-10T04:09:54.142Z,13.20
2022-08-10T04:12:24.406Z,13.30
2022-08-10T04:14:53.130Z,13.30
2022-08-10T04:18:02.875Z,13.30
2022-08-10T04:20:38.096Z,13.40
2022-08-10T04:23:12.245Z,13.40
2022-08-10T04:25:40.835Z,13.40
2022-08-10T04:28:10.391Z,13.50
2022-08-10T04:30:38.425Z,13.50
2022-08-10T04:33:08.047Z,13.60
2022-08-10T04:35:37.111Z,13.60
2022-08-10T04:38:05.738Z,13.60
2022-08-10T04:40:33.162Z,13.70
2022-08-10T04:43:10.469Z,13.70
2022-08-10T04:45:50.479Z,13.80
2022-08-10T04:48:42.206Z,13.90
2022-08-10T04:51:18.456Z,13.90
2022-08-10T04:54:03.346Z,14.00
2022-08-10T04:56:38.347Z,14.10
2022-08-10T04:59:10.426Z,14.20
2022-08-10T05:02:27.882Z,14.30
2022-08-10T05:04:35.325Z,14.40
2022-08-10T05:07:16.697Z,14.50
2022-08-10T05:10:03.403Z,14.60
2022-08-10T05:12:38.546Z,14.70
2022-08-10T05:15:14.393Z,14.90
2022-08-10T05:18:08.118Z,14.90
2022-08-10T05:20:30.345Z,15.10
2022-08-10T05:22:57.687Z,15.30
2022-08-10T05:25:24.784Z,15.40
2022-08-10T05:27:52.587Z,15.50
2022-08-10T05:30:22.267Z,15.60
2022-08-10T05:32:57.223Z,15.70
2022-08-10T05:35:28.330Z,15.80
2022-08-10T05:38:10.952Z,15.90
2022-08-10T05:40:46.546Z,16.00
2022-08-10T05:43:20.185Z,16.20
2022-08-10T05:46:16.659Z,16.30
2022-08-10T05:48:54.256Z,16.50
2022-08-10T05:51:27.448Z,16.60
2022-08-10T05:54:00.854Z,16.80
2022-08-10T05:56:55.714Z,16.90
2022-08-10T06:00:10.844Z,17.10
2022-08-10T06:02:41.777Z,17.20
2022-08-10T06:05:09.209Z,17.30
2022-08-10T06:07:51.890Z,17.50
2022-08-10T06:10:31.354Z,17.50
2022-08-10T06:13:26.929Z,17.70
2022-08-10T06:16:00.334Z,17.80
2022-08-10T06:18:28.699Z,17.90
2022-08-10T06:20:57.477Z,18.00
2022-08-10T06:23:28.299Z,18.10
2022-08-10T06:26:11.097Z,18.20
2022-08-10T06:28:53.972Z,18.40
2022-08-10T06:31:47.749Z,18.50
2022-08-10T06:34:30.842Z,18.60
2022-08-10T06:37:02.556Z,18.70
2022-08-10T06:39:34.206Z,18.80
2022-08-10T06:42:17.618Z,18.90
2022-08-10T06:44:56.970Z,19.00
2022-08-10T06:47:46.527Z,19.10
2022-08-10T06:50:44.555Z,19.20
2022-08-10T06:53:17.061Z,19.30
2022-08-10T06:55:56.683Z,19.40
2022-08-10T06:58:36.338Z,19.50
2022-08-10T07:01:07.704Z,19.60
2022-08-10T07:03:44.941Z,19.70
2022-08-10T07:06:13.934Z,19.70
2022-08-10T07:08:42.060Z,19.80
2022-08-10T07:11:12.134Z,19.90
2022-08-10T07:14:16.647Z,20.00
2022-08-10T07:16:29.796Z,20.10
2022-08-10T07:18:58.682Z,20.30
2022-08-10T07:21:27.204Z,20.40
2022-08-10T07:24:00.089Z,20.50
2022-08-10T07:26:30.523Z,20.60
2022-08-10T07:28:59.350Z,20.60
2022-08-10T07:31:56.479Z,20.60
2022-08-10T07:34:22.589Z,20.70
2022-08-10T07:37:02.074Z,20.70
2022-08-10T07:39:57.889Z,20.80
2022-08-10T07:42:24.519Z,20.80
2022-08-10T07:44:52.011Z,20.90
2022-08-10T07:47:53.014Z,20.90
2022-08-10T07:50:25.350Z,20.90
2022-08-10T07:52:55.422Z,20.90
2022-08-10T07:56:05.099Z,21.00
2022-08-10T07:58:11.958Z,21.00
2022-08-10T08:00:40.625Z,21.20
2022-08-10T08:03:10.791Z,21.20
2022-08-10T08:06:02.995Z,21.40
2022-08-10T08:08:28.739Z,21.40
2022-08-10T08:10:58.075Z,21.50
2022-08-10T08:13:26.556Z,21.50
2022-08-10T08:16:18.353Z,21.60
2022-08-10T08:18:58.398Z,21.60
2022-08-10T08:24:09.974Z,21.60
2022-08-10T08:24:31.991Z,21.60
2022-08-10T08:27:05.637Z,21.60
2022-08-10T08:29:37.103Z,21.60
2022-08-10T08:32:05.639Z,21.70
2022-08-10T08:34:34.447Z,21.80
2022-08-10T08:37:02.898Z,21.80
2022-08-10T08:39:36.919Z,21.90
2022-08-10T08:42:10.206Z,22.00
2022-08-10T08:45:03.248Z,22.10
2022-08-10T08:48:05.291Z,22.10
2022-08-10T08:51:01.606Z,22.20
2022-08-10T08:54:02.428Z,22.20
2022-08-10T08:56:35.075Z,22.20
2022-08-10T08:59:08.151Z,22.30
2022-08-10T09:01:41.619Z,22.30
2022-08-10T09:04:29.648Z,22.40
2022-08-10T09:07:59.017Z,22.50
2022-08-10T09:10:45.381Z,22.60
2022-08-10T09:13:27.316Z,22.70
2022-08-10T09:16:15.651Z,22.80
2022-08-10T09:19:08.649Z,22.90
2022-08-10T09:22:12.387Z,22.90
2022-08-10T09:24:54.553Z,23.10
2022-08-10T09:27:26.617Z,23.20
2022-08-10T09:30:02.280Z,23.30
2022-08-10T09:36:16.275Z,23.30
2022-08-10T09:36:21.931Z,23.30
2022-08-10T09:40:55.990Z,23.30
2022-08-10T09:42:32.480Z,23.30
2022-08-10T09:45:12.677Z,23.50
2022-08-10T09:48:04.570Z,23.60
2022-08-10T09:51:42.076Z,23.70
2022-08-10T09:54:15.627Z,23.80
2022-08-10T09:57:43.966Z,23.80
2022-08-10T10:00:27.207Z,23.90
2022-08-10T10:03:06.575Z,23.90
2022-08-10T10:05:50.307Z,23.90
2022-08-10T10:09:10.622Z,23.90
2022-08-10T10:11:50.337Z,24.10
2022-08-10T10:14:59.530Z,24.30
2022-08-10T10:17:44.029Z,24.20
2022-08-10T10:20:27.117Z,24.20
2022-08-10T10:23:29.245Z,24.20
2022-08-10T10:26:18.289Z,24.10
2022-08-10T10:29:57.657Z,24.00
2022-08-10T10:32:36.758Z,24.00
2022-08-10T10:35:33.053Z,23.90
2022-08-10T10:38:03.705Z,23.80
2022-08-10T10:40:48.783Z,23.80
2022-08-10T10:43:40.780Z,23.90
2022-08-10T10:46:29.497Z,24.20
2022-08-10T10:49:29.586Z,24.90
2022-08-10T10:52:14.679Z,25.90
2022-08-10T10:54:53.776Z,26.70
2022-08-10T10:57:59.434Z,27.00
2022-08-10T11:00:14.393Z,27.00
2022-08-10T11:03:12.005Z,26.70
2022-08-10T11:05:52.979Z,26.30
2022-08-10T11:08:29.174Z,25.90
2022-08-10T11:11:21.603Z,25.60
2022-08-10T11:14:26.142Z,25.30
2022-08-10T11:17:17.079Z,25.10
2022-08-10T11:20:24.533Z,24.80
2022-08-10T11:23:28.472Z,24.80
2022-08-10T11:26:11.851Z,24.80
2022-08-10T11:28:51.526Z,24.80
2022-08-10T11:31:43.293Z,24.80
2022-08-10T11:34:48.194Z,24.90
2022-08-10T11:38:34.435Z,24.90
2022-08-10T11:40:44.684Z,24.90
2022-08-10T11:43:35.431Z,24.90
2022-08-10T11:46:27.628Z,25.10
2022-08-10T11:49:33.677Z,25.30
2022-08-10T11:52:08.397Z,25.30
2022-08-10T11:54:54.029Z,25.30
2022-08-10T11:57:53.232Z,25.40
2022-08-10T12:00:16.125Z,25.30
2022-08-10T12:03:05.859Z,25.30
2022-08-10T12:05:46.451Z,25.30
2022-08-10T12:10:02.306Z,25.30
2022-08-10T12:11:24.515Z,25.20
2022-08-10T12:14:22.343Z,25.20
2022-08-10T12:17:08.034Z,25.30
2022-08-10T12:19:59.673Z,25.30
2022-08-10T12:22:40.805Z,25.40
2022-08-10T12:25:18.192Z,25.50
2022-08-10T12:28:50.356Z,25.60
2022-08-10T12:31:35.259Z,25.80
2022-08-10T12:34:33.320Z,25.90
2022-08-10T12:37:12.325Z,26.10
2022-08-10T12:39:53.156Z,26.10
2022-08-10T12:42:38.896Z,26.20
2022-08-10T12:45:27.333Z,26.30
2022-08-10T12:48:20.979Z,26.70
2022-08-10T12:50:59.383Z,27.10
2022-08-10T12:54:02.524Z,28.00
2022-08-10T12:56:39.442Z,28.80
2022-08-10T12:59:10.904Z,29.60
2022-08-10T13:02:09.805Z,30.30
2022-08-10T13:04:32.941Z,30.90
2022-08-10T13:07:02.101Z,31.50
2022-08-10T13:09:30.497Z,32.10
2022-08-10T13:12:38.460Z,32.60
2022-08-10T13:14:58.018Z,33.10
2022-08-10T13:17:38.638Z,33.20
2022-08-10T13:20:30.099Z,32.80
2022-08-10T13:23:01.349Z,32.00
2022-08-10T13:25:35.285Z,31.20
2022-08-10T13:28:37.050Z,30.70
2022-08-10T13:30:55.688Z,30.40
2022-08-10T13:34:41.632Z,30.30
2022-08-10T13:36:20.675Z,30.80
2022-08-10T13:38:50.114Z,31.20
2022-08-10T13:41:18.374Z,31.40
2022-08-10T13:43:56.045Z,31.50
2022-08-10T13:46:24.319Z,31.60
2022-08-10T13:48:55.651Z,31.50
2022-08-10T13:51:54.598Z,31.20
2022-08-10T13:54:17.384Z,30.80
2022-08-10T13:56:48.814Z,30.10
2022-08-10T13:59:17.784Z,29.50
2022-08-10T14:01:50.917Z,28.90
2022-08-10T14:04:19.800Z,28.40
2022-08-10T14:06:56.525Z,28.00
2022-08-10T14:09:31.282Z,27.60
2022-08-10T14:11:59.545Z,27.40
2022-08-10T14:14:29.318Z,27.20
2022-08-10T14:16:59.193Z,27.00
2022-08-10T14:19:31.903Z,26.90
2022-08-10T14:22:00.603Z,26.80
2022-08-10T14:24:30.063Z,26.90
2022-08-10T14:27:09.086Z,27.10
2022-08-10T14:29:48.514Z,27.30
2022-08-10T14:32:18.689Z,27.50
2022-08-10T14:36:16.544Z,27.70
2022-08-10T14:37:58.648Z,27.80
2022-08-10T14:40:33.745Z,28.10
2022-08-10T14:43:28.775Z,28.30
2022-08-10T14:46:03.640Z,28.40
2022-08-10T14:48:45.575Z,28.60
2022-08-10T14:51:17.771Z,29.00
2022-08-10T14:53:53.405Z,29.30
2022-08-10T14:56:33.910Z,29.70
2022-08-10T14:59:06.645Z,30.10
2022-08-10T15:01:59.950Z,30.20
2022-08-10T15:04:30.977Z,30.50
2022-08-10T15:07:12.090Z,30.60
2022-08-10T15:10:01.389Z,31.00
2022-08-10T15:12:35.542Z,31.40
2022-08-10T15:15:05.500Z,31.60
2022-08-10T15:17:41.986Z,31.50
2022-08-10T15:20:23.455Z,31.20
2022-08-10T15:23:05.252Z,30.70
2022-08-10T15:25:36.716Z,30.10
2022-08-10T15:28:08.190Z,29.60
2022-08-10T15:30:47.516Z,29.10
2022-08-10T15:34:01.891Z,28.90
2022-08-10T15:36:46.150Z,28.70
2022-08-10T15:40:21.641Z,28.80
2022-08-10T15:42:22.968Z,29.10
2022-08-10T15:44:53.976Z,29.20
2022-08-10T15:47:26.141Z,29.30
2022-08-10T15:50:02.797Z,29.50
2022-08-10T15:53:01.702Z,29.60
2022-08-10T15:55:42.364Z,29.70
2022-08-10T15:58:40.056Z,29.60
2022-08-10T16:02:13.157Z,29.60
2022-08-10T16:04:14.696Z,29.40
2022-08-10T16:06:55.601Z,29.30
2022-08-10T16:10:26.305Z,29.10
2022-08-10T16:12:17.548Z,28.90
2022-08-10T16:14:59.684Z,28.70
2022-08-10T16:17:28.226Z,28.60
2022-08-10T16:19:57.838Z,28.50
2022-08-10T16:22:34.421Z,28.50
2022-08-10T16:25:13.947Z,28.50
2022-08-10T16:27:43.272Z,28.40
2022-08-10T16:30:11.236Z,28.40
2022-08-10T16:32:39.598Z,28.40
2022-08-10T16:35:10.336Z,28.40
2022-08-10T16:37:57.826Z,28.40
2022-08-10T16:40:29.505Z,28.50
2022-08-10T16:42:59.813Z,28.50
2022-08-10T16:45:41.303Z,28.60
2022-08-10T16:48:09.887Z,28.70
2022-08-10T16:50:45.388Z,28.80
2022-08-10T16:53:16.894Z,28.70
2022-08-10T16:55:50.708Z,28.70
2022-08-10T16:58:27.241Z,28.60
2022-08-10T17:01:04.613Z,28.50
2022-08-10T17:04:08.254Z,28.50
2022-08-10T17:06:34.303Z,28.50
2022-08-10T17:09:06.540Z,28.60
2022-08-10T17:11:37.517Z,28.60
2022-08-10T17:14:08.466Z,28.60
2022-08-10T17:16:38.691Z,28.50
2022-08-10T17:19:12.932Z,28.50
2022-08-10T17:21:51.942Z,28.40
2022-08-10T17:24:24.225Z,28.30
2022-08-10T17:26:51.629Z,28.20
2022-08-10T17:29:58.228Z,28.00
2022-08-10T17:32:33.802Z,27.70
2022-08-10T17:35:23.435Z,27.30
2022-08-10T17:37:57.890Z,27.00
2022-08-10T17:40:27.572Z,26.60
2022-08-10T17:42:55.920Z,26.30
2022-08-10T17:45:46.299Z,26.00
2022-08-10T17:48:26.305Z,25.70
2022-08-10T17:50:54.808Z,25.50
2022-08-10T17:53:27.811Z,25.10
2022-08-10T17:55:57.958Z,24.90
2022-08-10T17:58:28.231Z,24.60
2022-08-10T18:00:57.516Z,24.40
2022-08-10T18:03:56.856Z,24.10
2022-08-10T18:06:25.606Z,23.80
2022-08-10T18:09:06.465Z,23.60
2022-08-10T18:11:40.219Z,23.30
2022-08-10T18:14:09.672Z,23.10
2022-08-10T18:16:41.855Z,22.90
2022-08-10T18:19:14.489Z,22.70
2022-08-10T18:21:46.289Z,22.50
2022-08-10T18:24:20.000Z,22.40
2022-08-10T18:26:50.916Z,22.20
2022-08-10T18:29:24.370Z,22.00
2022-08-10T18:31:57.517Z,21.80
2022-08-10T18:34:27.067Z,21.70
2022-08-10T18:36:54.649Z,21.60
2022-08-10T18:39:26.264Z,21.40
2022-08-10T18:42:24.331Z,21.30
2022-08-10T18:44:55.654Z,21.20
2022-08-10T18:47:39.289Z,21.00
2022-08-10T18:50:12.279Z,20.90
2022-08-10T18:52:43.253Z,20.70
2022-08-10T18:55:35.387Z,20.70
2022-08-10T18:58:29.841Z,20.60
2022-08-10T19:01:28.211Z,20.50
2022-08-10T19:04:22.129Z,20.40
2022-08-10T19:06:49.549Z,20.30
2022-08-10T19:10:02.808Z,20.20
2022-08-10T19:12:53.143Z,20.20
2022-08-10T19:15:47.382Z,20.10
2022-08-10T19:18:45.780Z,20.00
2022-08-10T19:21:28.818Z,20.00
2022-08-10T19:24:12.087Z,19.90
2022-08-10T19:26:49.544Z,19.80
2022-08-10T19:30:11.189Z,19.80
2022-08-10T19:32:46.450Z,19.70
2022-08-10T19:36:03.432Z,19.60
2022-08-10T19:38:33.418Z,19.60
2022-08-10T19:41:41.780Z,19.50
2022-08-10T19:44:32.927Z,19.50
2022-08-10T19:47:06.822Z,19.40
2022-08-10T19:49:59.438Z,19.30
2022-08-10T19:52:59.666Z,19.20
2022-08-10T19:55:50.650Z,19.20
2022-08-10T19:58:59.685Z,19.10
2022-08-10T20:01:56.269Z,19.00
2022-08-10T20:04:22.405Z,19.00
2022-08-10T20:07:10.240Z,18.90
2022-08-10T20:09:55.038Z,18.90
2022-08-10T20:12:27.465Z,18.80
2022-08-10T20:15:15.605Z,18.70
2022-08-10T20:17:55.217Z,18.70
2022-08-10T20:20:36.422Z,18.70
2022-08-10T20:23:25.120Z,18.60
2022-08-10T20:25:56.526Z,18.60
2022-08-10T20:28:32.471Z,18.50
2022-08-10T20:31:09.198Z,18.40
2022-08-10T20:33:58.646Z,18.40
2022-08-10T20:36:36.944Z,18.30
2022-08-10T20:39:13.534Z,18.20
2022-08-10T20:42:19.831Z,18.10
2022-08-10T20:45:18.326Z,18.00
2022-08-10T20:48:07.212Z,17.90
2022-08-10T20:50:40.862Z,17.90
2022-08-10T20:53:16.900Z,17.80
2022-08-10T20:56:03.678Z,17.70
2022-08-10T20:59:00.680Z,17.70
2022-08-10T21:02:07.199Z,17.60
2022-08-10T21:05:16.161Z,17.50
2022-08-10T21:08:05.009Z,17.50
2022-08-10T21:11:07.512Z,17.40
2022-08-10T21:13:57.110Z,17.30
2022-08-10T21:19:52.226Z,17.20
2022-08-10T21:22:29.322Z,17.10
2022-08-10T21:25:08.651Z,17.00
2022-08-10T21:27:57.744Z,16.90
2022-08-10T21:30:58.518Z,16.90
2022-08-10T21:34:02.222Z,16.90
2022-08-10T21:36:59.794Z,16.80
2022-08-10T21:39:50.383Z,16.80
2022-08-10T21:42:45.045Z,16.80
2022-08-10T21:45:58.279Z,16.70
2022-08-10T21:49:14.795Z,16.70
2022-08-10T21:52:12.628Z,16.60
2022-08-10T21:55:17.413Z,16.50
2022-08-10T21:58:15.914Z,16.40
2022-08-10T22:04:19.236Z,16.20
2022-08-10T22:10:30.937Z,16.10
2022-08-10T22:13:21.314Z,16.00
2022-08-10T22:16:13.706Z,16.00
2022-08-10T22:19:03.702Z,15.90
2022-08-10T22:22:27.724Z,15.80
2022-08-10T22:25:19.828Z,15.80
2022-08-10T22:28:12.343Z,15.70
2022-08-10T22:31:28.265Z,17.30
2022-08-10T22:34:39.549Z,15.60
2022-08-10T22:37:55.626Z,15.50
2022-08-10T22:40:43.139Z,15.40
2022-08-10T22:43:40.129Z,15.40
2022-08-10T22:46:43.974Z,15.30
2022-08-10T22:49:12.184Z,15.30
2022-08-10T22:51:48.497Z,15.30
2022-08-10T22:54:57.749Z,15.30
2022-08-10T22:57:44.368Z,15.30
2022-08-10T23:00:20.284Z,15.30
2022-08-10T23:03:11.099Z,15.20
2022-08-10T23:05:54.091Z,15.10
2022-08-10T23:08:31.987Z,15.10
2022-08-10T23:11:08.374Z,15.00
2022-08-10T23:13:43.722Z,15.00
2022-08-10T23:16:43.096Z,14.90
2022-08-10T23:19:24.699Z,14.90
2022-08-10T23:22:11.524Z,14.80
2022-08-10T23:24:47.826Z,14.80
2022-08-10T23:27:38.519Z,14.70
2022-08-10T23:30:18.138Z,14.70
2022-08-10T23:32:50.698Z,14.60
2022-08-10T23:36:04.605Z,14.60
2022-08-10T23:38:10.729Z,14.60
2022-08-10T23:40:43.406Z,14.60
2022-08-10T23:43:19.192Z,14.50
2022-08-10T23:45:56.571Z,14.50
2022-08-10T23:48:36.049Z,14.50
2022-08-10T23:51:16.372Z,14.50
2022-08-10T23:53:46.494Z,14.40
2022-08-10T23:56:20.503Z,14.40
2022-08-10T23:58:50.312Z,14.40
